sensor_id;sensor_type;location;lat;lon;timestamp;P1;durP1;ratioP1;P2;durP2;ratioP2
62010;SDS011;47967;51.756;10.174;2023-03-29T04:05:07;7.68;;;4.30;;
62010;SDS011;47967;51.756;10.174;2023-03-29T04:09:12;9.60;;;4.30;;
62010;SDS011;47967;51.756;10.174;2023-03-29T04:13:18;6.35;;;4.20;;
62010;SDS011;47967;51.756;10.174;2023-03-29T04:17:59;8.93;;;4.68;;
62010;SDS011;47967;51.756;10.174;2023-03-29T04:22:06;8.48;;;4.40;;
62010;SDS011;47967;51.756;10.174;2023-03-29T04:26:10;8.48;;;4.35;;
62010;SDS011;47967;51.756;10.174;2023-03-29T04:30:21;9.32;;;4.45;;
62010;SDS011;47967;51.756;10.174;2023-03-29T04:34:48;8.43;;;4.07;;
62010;SDS011;47967;51.756;10.174;2023-03-29T04:38:51;6.80;;;4.13;;
62010;SDS011;47967;51.756;10.174;2023-03-29T04:42:53;7.88;;;4.47;;
62010;SDS011;47967;51.756;10.174;2023-03-29T04:46:56;9.23;;;4.53;;
62010;SDS011;47967;51.756;10.174;2023-03-29T04:51:06;7.93;;;4.35;;
62010;SDS011;47967;51.756;10.174;2023-03-29T04:55:09;9.20;;;4.85;;
62010;SDS011;47967;51.756;10.174;2023-03-29T04:59:35;7.45;;;4.88;;
62010;SDS011;47967;51.756;10.174;2023-03-29T05:03:48;7.90;;;4.50;;
62010;SDS011;47967;51.756;10.174;2023-03-29T05:07:59;9.93;;;4.72;;
62010;SDS011;47967;51.756;10.174;2023-03-29T05:12:10;9.40;;;4.87;;
62010;SDS011;47967;51.756;10.174;2023-03-29T05:16:31;11.32;;;5.43;;
62010;SDS011;47967;51.756;10.174;2023-03-29T05:20:35;9.73;;;4.90;;
62010;SDS011;47967;51.756;10.174;2023-03-29T05:24:40;10.30;;;4.88;;
62010;SDS011;47967;51.756;10.174;2023-03-29T05:28:48;8.65;;;4.93;;
62010;SDS011;47967;51.756;10.174;2023-03-29T05:32:51;9.70;;;4.80;;
62010;SDS011;47967;51.756;10.174;2023-03-29T05:36:57;8.88;;;5.28;;
62010;SDS011;47967;51.756;10.174;2023-03-29T05:41:08;9.07;;;4.85;;
62010;SDS011;47967;51.756;10.174;2023-03-29T05:45:14;8.88;;;4.80;;
62010;SDS011;47967;51.756;10.174;2023-03-29T05:49:18;10.43;;;5.57;;
62010;SDS011;47967;51.756;10.174;2023-03-29T05:53:41;8.60;;;4.70;;
62010;SDS011;47967;51.756;10.174;2023-03-29T05:57:46;10.23;;;5.53;;
62010;SDS011;47967;51.756;10.174;2023-03-29T06:01:51;11.43;;;5.30;;
62010;SDS011;47967;51.756;10.174;2023-03-29T06:05:55;9.77;;;5.00;;
62010;SDS011;47967;51.756;10.174;2023-03-29T06:09:59;9.75;;;5.30;;
62010;SDS011;47967;51.756;10.174;2023-03-29T06:14:04;8.75;;;5.07;;
62010;SDS011;47967;51.756;10.174;2023-03-29T06:18:09;10.18;;;5.40;;
62010;SDS011;47967;51.756;10.174;2023-03-29T06:22:12;8.52;;;4.90;;
62010;SDS011;47967;51.756;10.174;2023-03-29T06:30:21;9.15;;;4.75;;
62010;SDS011;47967;51.756;10.174;2023-03-29T06:34:27;7.10;;;4.45;;
62010;SDS011;47967;51.756;10.174;2023-03-29T06:38:42;10.90;;;4.88;;
62010;SDS011;47967;51.756;10.174;2023-03-29T06:42:54;7.90;;;4.32;;
62010;SDS011;47967;51.756;10.174;2023-03-29T06:47:17;9.80;;;4.57;;
62010;SDS011;47967;51.756;10.174;2023-03-29T06:51:21;8.10;;;4.38;;
62010;SDS011;47967;51.756;10.174;2023-03-29T06:55:25;10.20;;;5.63;;
62010;SDS011;47967;51.756;10.174;2023-03-29T06:59:30;9.45;;;4.20;;
62010;SDS011;47967;51.756;10.174;2023-03-29T07:03:46;7.72;;;3.95;;
62010;SDS011;47967;51.756;10.174;2023-03-29T07:07:53;7.15;;;4.20;;
62010;SDS011;47967;51.756;10.174;2023-03-29T07:12:08;8.25;;;4.05;;
62010;SDS011;47967;51.756;10.174;2023-03-29T07:16:11;10.13;;;4.60;;
62010;SDS011;47967;51.756;10.174;2023-03-29T07:20:25;9.05;;;4.22;;
62010;SDS011;47967;51.756;10.174;2023-03-29T07:24:37;8.95;;;4.03;;
62010;SDS011;47967;51.756;10.174;2023-03-29T07:28:40;8.23;;;4.73;;
62010;SDS011;47967;51.756;10.174;2023-03-29T07:32:43;9.23;;;4.15;;
62010;SDS011;47967;51.756;10.174;2023-03-29T07:36:59;8.90;;;4.13;;
62010;SDS011;47967;51.756;10.174;2023-03-29T07:41:02;7.20;;;4.07;;
62010;SDS011;47967;51.756;10.174;2023-03-29T07:45:20;6.22;;;4.00;;
62010;SDS011;47967;51.756;10.174;2023-03-29T07:49:34;7.88;;;4.40;;
62010;SDS011;47967;51.756;10.174;2023-03-29T07:53:38;7.73;;;3.90;;
62010;SDS011;47967;51.756;10.174;2023-03-29T07:57:53;8.38;;;3.63;;
62010;SDS011;47967;51.756;10.174;2023-03-29T08:01:57;8.05;;;4.00;;
62010;SDS011;47967;51.756;10.174;2023-03-29T08:06:05;11.32;;;3.58;;
62010;SDS011;47967;51.756;10.174;2023-03-29T08:10:10;9.73;;;3.63;;
62010;SDS011;47967;51.756;10.174;2023-03-29T08:14:29;7.47;;;3.85;;
62010;SDS011;47967;51.756;10.174;2023-03-29T08:18:37;6.45;;;3.60;;
62010;SDS011;47967;51.756;10.174;2023-03-29T08:22:40;7.72;;;3.90;;
62010;SDS011;47967;51.756;10.174;2023-03-29T08:26:59;6.63;;;3.35;;
62010;SDS011;47967;51.756;10.174;2023-03-29T08:31:01;7.65;;;3.50;;
62010;SDS011;47967;51.756;10.174;2023-03-29T08:39:16;7.13;;;3.70;;
62010;SDS011;47967;51.756;10.174;2023-03-29T08:43:33;5.80;;;3.55;;
62010;SDS011;47967;51.756;10.174;2023-03-29T08:48:19;9.82;;;3.78;;
62010;SDS011;47967;51.756;10.174;2023-03-29T08:52:30;10.30;;;3.53;;
62010;SDS011;47967;51.756;10.174;2023-03-29T08:56:46;5.07;;;2.97;;
62010;SDS011;47967;51.756;10.174;2023-03-29T09:01:01;6.15;;;3.38;;
62010;SDS011;47967;51.756;10.174;2023-03-29T09:05:19;6.13;;;3.10;;
62010;SDS011;47967;51.756;10.174;2023-03-29T09:09:38;7.60;;;3.10;;
62010;SDS011;47967;51.756;10.174;2023-03-29T09:13:51;8.38;;;3.90;;
62010;SDS011;47967;51.756;10.174;2023-03-29T09:18:09;5.53;;;3.20;;
62010;SDS011;47967;51.756;10.174;2023-03-29T09:22:18;8.57;;;3.20;;
62010;SDS011;47967;51.756;10.174;2023-03-29T09:26:26;5.72;;;2.95;;
62010;SDS011;47967;51.756;10.174;2023-03-29T09:31:02;6.72;;;3.28;;
62010;SDS011;47967;51.756;10.174;2023-03-29T09:35:12;6.18;;;2.78;;
62010;SDS011;47967;51.756;10.174;2023-03-29T09:39:19;4.95;;;2.85;;
62010;SDS011;47967;51.756;10.174;2023-03-29T09:43:30;6.88;;;2.95;;
62010;SDS011;47967;51.756;10.174;2023-03-29T09:47:39;7.40;;;2.97;;
62010;SDS011;47967;51.756;10.174;2023-03-29T09:51:48;5.60;;;2.95;;
62010;SDS011;47967;51.756;10.174;2023-03-29T09:55:53;6.72;;;2.92;;
62010;SDS011;47967;51.756;10.174;2023-03-29T10:00:14;3.78;;;3.00;;
62010;SDS011;47967;51.756;10.174;2023-03-29T10:04:17;6.28;;;3.30;;
62010;SDS011;47967;51.756;10.174;2023-03-29T10:08:34;5.68;;;2.85;;
62010;SDS011;47967;51.756;10.174;2023-03-29T10:12:40;7.43;;;3.35;;
62010;SDS011;47967;51.756;10.174;2023-03-29T10:16:53;4.68;;;2.92;;
62010;SDS011;47967;51.756;10.174;2023-03-29T10:20:57;5.38;;;2.67;;
62010;SDS011;47967;51.756;10.174;2023-03-29T10:25:08;7.25;;;3.00;;
62010;SDS011;47967;51.756;10.174;2023-03-29T10:29:14;6.88;;;2.60;;
62010;SDS011;47967;51.756;10.174;2023-03-29T10:33:18;6.93;;;3.08;;
62010;SDS011;47967;51.756;10.174;2023-03-29T10:37:24;3.83;;;2.35;;
62010;SDS011;47967;51.756;10.174;2023-03-29T10:41:31;6.22;;;3.00;;
62010;SDS011;47967;51.756;10.174;2023-03-29T10:45:35;5.95;;;2.70;;
62010;SDS011;47967;51.756;10.174;2023-03-29T10:49:40;5.63;;;2.70;;
62010;SDS011;47967;51.756;10.174;2023-03-29T10:53:45;3.65;;;2.58;;
62010;SDS011;47967;51.756;10.174;2023-03-29T10:57:51;6.97;;;2.90;;
62010;SDS011;47967;51.756;10.174;2023-03-29T11:02:24;4.25;;;2.60;;
62010;SDS011;47967;51.756;10.174;2023-03-29T11:06:39;17.88;;;4.72;;
62010;SDS011;47967;51.756;10.174;2023-03-29T11:10:50;4.10;;;2.60;;
62010;SDS011;47967;51.756;10.174;2023-03-29T11:19:37;4.15;;;2.58;;
62010;SDS011;47967;51.756;10.174;2023-03-29T11:23:51;4.43;;;2.75;;
62010;SDS011;47967;51.756;10.174;2023-03-29T11:28:07;5.72;;;2.60;;
62010;SDS011;47967;51.756;10.174;2023-03-29T11:32:22;4.07;;;2.50;;
62010;SDS011;47967;51.756;10.174;2023-03-29T11:36:30;7.07;;;2.85;;
62010;SDS011;47967;51.756;10.174;2023-03-29T11:40:42;4.85;;;2.75;;
62010;SDS011;47967;51.756;10.174;2023-03-29T11:44:51;4.97;;;2.80;;
62010;SDS011;47967;51.756;10.174;2023-03-29T11:48:59;5.75;;;2.67;;
62010;SDS011;47967;51.756;10.174;2023-03-29T11:53:07;3.70;;;2.80;;
62010;SDS011;47967;51.756;10.174;2023-03-29T11:57:13;3.10;;;2.55;;
62010;SDS011;47967;51.756;10.174;2023-03-29T12:01:23;4.75;;;2.78;;
62010;SDS011;47967;51.756;10.174;2023-03-29T12:05:37;6.95;;;2.90;;
62010;SDS011;47967;51.756;10.174;2023-03-29T12:09:44;6.82;;;2.92;;
62010;SDS011;47967;51.756;10.174;2023-03-29T12:13:52;4.60;;;2.58;;
62010;SDS011;47967;51.756;10.174;2023-03-29T12:18:02;5.05;;;2.72;;
62010;SDS011;47967;51.756;10.174;2023-03-29T12:22:16;3.83;;;2.58;;
62010;SDS011;47967;51.756;10.174;2023-03-29T12:26:25;8.77;;;3.03;;
62010;SDS011;47967;51.756;10.174;2023-03-29T12:30:39;5.10;;;3.30;;
62010;SDS011;47967;51.756;10.174;2023-03-29T12:34:51;6.07;;;2.80;;
62010;SDS011;47967;51.756;10.174;2023-03-29T12:39:40;4.57;;;2.97;;
62010;SDS011;47967;51.756;10.174;2023-03-29T12:44:02;4.20;;;2.97;;
62010;SDS011;47967;51.756;10.174;2023-03-29T12:48:14;5.00;;;3.00;;
62010;SDS011;47967;51.756;10.174;2023-03-29T12:52:22;4.20;;;3.15;;
62010;SDS011;47967;51.756;10.174;2023-03-29T12:56:35;5.70;;;3.33;;
62010;SDS011;47967;51.756;10.174;2023-03-29T13:00:42;7.88;;;3.50;;
62010;SDS011;47967;51.756;10.174;2023-03-29T13:04:50;6.55;;;3.63;;
62010;SDS011;47967;51.756;10.174;2023-03-29T13:08:58;5.22;;;3.40;;
62010;SDS011;47967;51.756;10.174;2023-03-29T13:13:16;6.65;;;3.70;;
62010;SDS011;47967;51.756;10.174;2023-03-29T13:17:28;6.40;;;4.18;;
62010;SDS011;47967;51.756;10.174;2023-03-29T13:21:40;5.47;;;3.85;;
62010;SDS011;47967;51.756;10.174;2023-03-29T13:25:54;9.02;;;4.07;;
62010;SDS011;47967;51.756;10.174;2023-03-29T13:30:16;6.88;;;4.35;;
62010;SDS011;47967;51.756;10.174;2023-03-29T13:34:28;5.93;;;3.88;;
62010;SDS011;47967;51.756;10.174;2023-03-29T13:38:44;8.25;;;4.13;;
62010;SDS011;47967;51.756;10.174;2023-03-29T13:42:55;10.73;;;5.35;;
62010;SDS011;47967;51.756;10.174;2023-03-29T13:47:02;9.45;;;4.47;;
62010;SDS011;47967;51.756;10.174;2023-03-29T13:51:18;9.57;;;6.03;;
62010;SDS011;47967;51.756;10.174;2023-03-29T13:55:23;5.28;;;4.00;;
62010;SDS011;47967;51.756;10.174;2023-03-29T13:59:41;7.43;;;3.75;;
62010;SDS011;47967;51.756;10.174;2023-03-29T14:03:50;6.75;;;3.78;;
62010;SDS011;47967;51.756;10.174;2023-03-29T14:07:53;6.13;;;3.70;;
62010;SDS011;47967;51.756;10.174;2023-03-29T14:11:57;6.72;;;4.15;;
62010;SDS011;47967;51.756;10.174;2023-03-29T14:16:01;7.75;;;3.60;;
62010;SDS011;47967;51.756;10.174;2023-03-29T14:20:13;6.68;;;3.95;;
62010;SDS011;47967;51.756;10.174;2023-03-29T14:24:18;6.22;;;3.33;;
62010;SDS011;47967;51.756;10.174;2023-03-29T14:28:23;8.02;;;3.88;;
62010;SDS011;47967;51.756;10.174;2023-03-29T14:32:27;8.10;;;3.28;;
62010;SDS011;47967;51.756;10.174;2023-03-29T14:36:32;9.02;;;3.53;;
62010;SDS011;47967;51.756;10.174;2023-03-29T14:40:35;6.63;;;3.65;;
62010;SDS011;47967;51.756;10.174;2023-03-29T14:44:38;7.17;;;3.70;;
62010;SDS011;47967;51.756;10.174;2023-03-29T14:48:41;4.22;;;3.28;;
62010;SDS011;47967;51.756;10.174;2023-03-29T14:52:46;8.50;;;3.80;;
62010;SDS011;47967;51.756;10.174;2023-03-29T14:56:52;9.23;;;3.95;;
62010;SDS011;47967;51.756;10.174;2023-03-29T15:00:55;11.35;;;5.03;;
62010;SDS011;47967;51.756;10.174;2023-03-29T15:04:58;7.28;;;4.03;;
62010;SDS011;47967;51.756;10.174;2023-03-29T15:09:06;6.05;;;3.50;;
62010;SDS011;47967;51.756;10.174;2023-03-29T15:13:13;7.20;;;4.13;;
62010;SDS011;47967;51.756;10.174;2023-03-29T15:17:29;5.00;;;3.70;;
62010;SDS011;47967;51.756;10.174;2023-03-29T15:21:50;7.78;;;3.58;;
62010;SDS011;47967;51.756;10.174;2023-03-29T15:25:55;6.88;;;3.55;;
62010;SDS011;47967;51.756;10.174;2023-03-29T15:30:00;6.80;;;3.35;;
62010;SDS011;47967;51.756;10.174;2023-03-29T15:34:04;5.93;;;3.47;;
62010;SDS011;47967;51.756;10.174;2023-03-29T15:38:10;7.60;;;3.40;;
62010;SDS011;47967;51.756;10.174;2023-03-29T15:42:15;6.45;;;3.45;;
62010;SDS011;47967;51.756;10.174;2023-03-29T15:46:18;7.80;;;3.65;;
62010;SDS011;47967;51.756;10.174;2023-03-29T15:50:20;5.07;;;3.47;;
62010;SDS011;47967;51.756;10.174;2023-03-29T15:54:23;9.25;;;3.60;;
62010;SDS011;47967;51.756;10.174;2023-03-29T15:58:28;10.32;;;4.00;;
62010;SDS011;47967;51.756;10.174;2023-03-29T16:02:32;5.47;;;3.35;;
62010;SDS011;47967;51.756;10.174;2023-03-29T16:10:38;6.13;;;3.53;;
62010;SDS011;47967;51.756;10.174;2023-03-29T16:14:42;6.30;;;3.55;;
62010;SDS011;47967;51.756;10.174;2023-03-29T16:18:45;6.25;;;3.45;;
62010;SDS011;47967;51.756;10.174;2023-03-29T16:22:48;5.97;;;3.03;;
62010;SDS011;47967;51.756;10.174;2023-03-29T16:26:51;7.32;;;3.22;;
62010;SDS011;47967;51.756;10.174;2023-03-29T16:30:57;6.78;;;3.38;;
62010;SDS011;47967;51.756;10.174;2023-03-29T16:35:00;11.50;;;3.22;;
62010;SDS011;47967;51.756;10.174;2023-03-29T16:39:04;8.32;;;3.40;;
62010;SDS011;47967;51.756;10.174;2023-03-29T16:43:09;5.30;;;3.00;;
62010;SDS011;47967;51.756;10.174;2023-03-29T16:47:16;7.10;;;3.28;;
62010;SDS011;47967;51.756;10.174;2023-03-29T16:51:18;7.60;;;3.60;;
62010;SDS011;47967;51.756;10.174;2023-03-29T16:55:21;11.53;;;3.60;;
62010;SDS011;47967;51.756;10.174;2023-03-29T16:59:24;9.87;;;3.77;;
62010;SDS011;47967;51.756;10.174;2023-03-29T17:03:28;8.02;;;3.90;;
62010;SDS011;47967;51.756;10.174;2023-03-29T17:07:31;8.65;;;3.53;;
62010;SDS011;47967;51.756;10.174;2023-03-29T17:11:33;8.33;;;3.40;;
62010;SDS011;47967;51.756;10.174;2023-03-29T17:15:36;9.15;;;3.70;;
62010;SDS011;47967;51.756;10.174;2023-03-29T17:19:41;12.60;;;3.60;;
62010;SDS011;47967;51.756;10.174;2023-03-29T17:23:44;8.68;;;3.40;;
62010;SDS011;47967;51.756;10.174;2023-03-29T17:27:47;8.63;;;3.30;;
62010;SDS011;47967;51.756;10.174;2023-03-29T17:31:49;8.15;;;3.10;;
62010;SDS011;47967;51.756;10.174;2023-03-29T17:35:53;6.87;;;2.67;;
62010;SDS011;47967;51.756;10.174;2023-03-29T17:39:56;4.05;;;2.35;;
62010;SDS011;47967;51.756;10.174;2023-03-29T17:43:59;7.03;;;2.33;;
62010;SDS011;47967;51.756;10.174;2023-03-29T17:48:02;3.13;;;2.13;;
62010;SDS011;47967;51.756;10.174;2023-03-29T17:52:08;4.95;;;2.63;;
62010;SDS011;47967;51.756;10.174;2023-03-29T17:56:10;4.68;;;2.50;;
62010;SDS011;47967;51.756;10.174;2023-03-29T18:00:14;3.00;;;2.07;;
62010;SDS011;47967;51.756;10.174;2023-03-29T18:04:17;4.43;;;2.30;;
62010;SDS011;47967;51.756;10.174;2023-03-29T18:08:21;6.90;;;3.13;;
62010;SDS011;47967;51.756;10.174;2023-03-29T18:12:23;6.05;;;3.03;;
62010;SDS011;47967;51.756;10.174;2023-03-29T18:16:27;6.20;;;3.28;;
62010;SDS011;47967;51.756;10.174;2023-03-29T18:20:30;6.15;;;3.15;;
62010;SDS011;47967;51.756;10.174;2023-03-29T18:24:34;9.15;;;3.70;;
62010;SDS011;47967;51.756;10.174;2023-03-29T18:28:36;6.95;;;3.13;;
62010;SDS011;47967;51.756;10.174;2023-03-29T18:32:39;7.17;;;4.20;;
62010;SDS011;47967;51.756;10.174;2023-03-29T18:36:42;6.03;;;3.53;;
62010;SDS011;47967;51.756;10.174;2023-03-29T18:40:46;4.68;;;3.17;;
62010;SDS011;47967;51.756;10.174;2023-03-29T18:44:49;5.38;;;3.38;;
62010;SDS011;47967;51.756;10.174;2023-03-29T18:48:52;6.63;;;3.83;;
62010;SDS011;47967;51.756;10.174;2023-03-29T18:52:54;6.97;;;3.80;;
62010;SDS011;47967;51.756;10.174;2023-03-29T18:56:58;5.82;;;3.20;;
62010;SDS011;47967;51.756;10.174;2023-03-29T19:01:01;4.70;;;3.13;;
62010;SDS011;47967;51.756;10.174;2023-03-29T19:05:06;5.50;;;3.13;;
62010;SDS011;47967;51.756;10.174;2023-03-29T19:09:09;6.70;;;2.75;;
62010;SDS011;47967;51.756;10.174;2023-03-29T19:13:13;6.07;;;3.30;;
62010;SDS011;47967;51.756;10.174;2023-03-29T19:17:15;4.70;;;3.10;;
62010;SDS011;47967;51.756;10.174;2023-03-29T19:21:18;4.77;;;3.10;;
62010;SDS011;47967;51.756;10.174;2023-03-29T19:25:22;5.57;;;3.10;;
62010;SDS011;47967;51.756;10.174;2023-03-29T19:29:26;7.20;;;3.20;;
62010;SDS011;47967;51.756;10.174;2023-03-29T19:33:28;7.95;;;2.90;;
62010;SDS011;47967;51.756;10.174;2023-03-29T19:37:31;6.83;;;2.47;;
62010;SDS011;47967;51.756;10.174;2023-03-29T19:41:34;5.15;;;2.83;;
62010;SDS011;47967;51.756;10.174;2023-03-29T19:45:40;4.03;;;2.70;;
62010;SDS011;47967;51.756;10.174;2023-03-29T19:49:42;6.70;;;2.65;;
62010;SDS011;47967;51.756;10.174;2023-03-29T19:53:46;4.05;;;2.90;;
62010;SDS011;47967;51.756;10.174;2023-03-29T19:57:48;5.33;;;3.47;;
62010;SDS011;47967;51.756;10.174;2023-03-29T20:01:52;7.03;;;3.40;;
62010;SDS011;47967;51.756;10.174;2023-03-29T20:05:57;7.13;;;3.80;;
62010;SDS011;47967;51.756;10.174;2023-03-29T20:09:59;9.23;;;3.50;;
62010;SDS011;47967;51.756;10.174;2023-03-29T20:14:02;7.73;;;3.40;;
62010;SDS011;47967;51.756;10.174;2023-03-29T20:18:07;7.40;;;3.40;;
62010;SDS011;47967;51.756;10.174;2023-03-29T20:22:09;6.55;;;3.42;;
62010;SDS011;47967;51.756;10.174;2023-03-29T20:26:13;5.30;;;3.22;;
62010;SDS011;47967;51.756;10.174;2023-03-29T20:30:15;4.67;;;2.80;;
62010;SDS011;47967;51.756;10.174;2023-03-29T20:34:21;7.10;;;3.10;;
62010;SDS011;47967;51.756;10.174;2023-03-29T20:38:23;7.03;;;3.22;;
62010;SDS011;47967;51.756;10.174;2023-03-29T20:42:26;5.13;;;3.17;;
62010;SDS011;47967;51.756;10.174;2023-03-29T20:46:28;6.60;;;3.23;;
62010;SDS011;47967;51.756;10.174;2023-03-29T20:50:35;6.25;;;3.22;;
62010;SDS011;47967;51.756;10.174;2023-03-29T20:54:39;4.85;;;2.92;;
62010;SDS011;47967;51.756;10.174;2023-03-29T20:58:42;4.55;;;3.00;;
